Nagatomaru — JD3612 — position and weather

sailwx.info

Track history (hours):
 
Tides and Currents Weather Stations Pressure Air Temp Water Temp Dewpoint Dewpoint Depression Visibility Wind Speed Wind Dir Waves Ship Positions

Nagatomaru

Last reported at 2017-Nov-24 05:30 UTC. Time now 2017-Nov-24 05:46 UTC.
Position N 35°17' E 139°41'.

Length 38 m; draft 3 m.

Type: Tug. MMSI: 431005054.

Date/timePositionNaut miles runAvg speedWind from/ knotsBaromVisibWave heightAir tempDewpointWater temp
2017-Nov-24 05:30N 35°17' E 139°41'0 0.0
2017-Nov-24 05:00N 35°17' E 139°41'0 0.0
2017-Nov-24 04:29N 35°17' E 139°41'0 0.0
2017-Nov-24 04:00N 35°17' E 139°41'0 0.0
2017-Nov-24 03:30N 35°17' E 139°41'0 0.0
2017-Nov-24 03:00N 35°17' E 139°41'0 0.0
2017-Nov-24 02:27N 35°17' E 139°41'0 0.0
2017-Nov-24 02:00N 35°17' E 139°41'3 5.6
2017-Nov-24 01:31N 35°17' E 139°44'5 9.6
2017-Nov-24 01:00N 35°12' E 139°46'4 8.2
2017-Nov-24 00:30N 35°16' E 139°45'612.9
2017-Nov-24 00:00N 35°22' E 139°42'611.8
2017-Nov-23 23:30N 35°27' E 139°47'612.9
2017-Nov-23 23:00N 35°30' E 139°53'6 8.5
2017-Nov-23 22:18N 35°31' E 140°01'0 0.8
2017-Nov-23 21:57N 35°32' E 140°01'7 6.1
2017-Nov-23 20:44N 35°27' E 139°53'311.0
2017-Nov-23 20:27N 35°25' E 139°51'510.8
2017-Nov-23 20:00N 35°22' E 139°47'611.1
2017-Nov-23 19:30N 35°18' E 139°42'1 0.4
2017-Nov-23 16:35N 35°17' E 139°41'0 0.0
2017-Nov-23 16:18N 35°17' E 139°41'0 0.0
2017-Nov-23 15:02N 35°17' E 139°41'0 0.0
2017-Nov-23 14:57N 35°17' E 139°41'0 0.0
2017-Nov-23 14:30N 35°17' E 139°41'0 0.0
2017-Nov-23 14:00N 35°17' E 139°41'0 0.0
2017-Nov-23 13:30N 35°17' E 139°41'0 0.0
2017-Nov-23 13:00N 35°17' E 139°41'0 0.0
2017-Nov-23 12:16N 35°17' E 139°41'0 0.0
2017-Nov-23 11:47N 35°17' E 139°41'0 0.0
2017-Nov-23 11:29N 35°17' E 139°41'0 0.0
2017-Nov-23 10:54N 35°17' E 139°41'0 0.0
2017-Nov-23 10:29N 35°17' E 139°41'0 0.0
2017-Nov-23 09:55N 35°17' E 139°41'2 3.8
2017-Nov-23 09:30N 35°18' E 139°42'5 9.7
2017-Nov-23 09:01N 35°13' E 139°45'3 5.9
2017-Nov-23 08:30N 35°16' E 139°45'713.9
2017-Nov-23 08:01N 35°23' E 139°42'4 7.5
2017-Nov-23 07:30N 35°27' E 139°42'0 1.0
2017-Nov-23 07:01N 35°27' E 139°42'0 0.0
2017-Nov-23 06:30N 35°27' E 139°42'0 0.0
2017-Nov-23 06:00N 35°27' E 139°42'3 6.4
2017-Nov-23 05:30N 35°27' E 139°46'0 0.9
2017-Nov-23 05:00N 35°27' E 139°46'2 3.4
2017-Nov-23 04:30N 35°25' E 139°46'5 9.4
2017-Nov-23 04:00N 35°21' E 139°45'510.7
2017-Nov-23 03:30N 35°16' E 139°47'510.2
2017-Nov-23 03:00N 35°10' E 139°47'1 1.2
2017-Nov-23 02:30N 35°10' E 139°48'4 7.9
2017-Nov-23 02:00N 35°14' E 139°46'2 3.8
2017-Nov-23 01:30N 35°16' E 139°45'2 4.0
2017-Nov-23 01:00N 35°18' E 139°43'4 8.1
2017-Nov-23 00:30N 35°22' E 139°44'2 4.2
2017-Nov-23 00:00N 35°23' E 139°46'4 7.1
2017-Nov-22 23:31N 35°19' E 139°44'510.0
2017-Nov-22 22:59N 35°15' E 139°47'5 9.6
2017-Nov-22 22:30N 35°10' E 139°47'4 8.7
2017-Nov-22 22:01N 35°14' E 139°45'5 9.2
2017-Nov-22 21:30N 35°17' E 139°41'1 1.5
2017-Nov-22 21:00N 35°17' E 139°41'0 0.0
2017-Nov-22 20:30N 35°17' E 139°41'0 0.0
2017-Nov-22 20:00N 35°17' E 139°41'0 0.0
2017-Nov-22 19:30N 35°17' E 139°41'  
2017-Nov-20 00:30N 35°18' E 139°42'3 5.8
2017-Nov-20 00:00N 35°21' E 139°41'3 6.8
2017-Nov-19 23:30N 35°24' E 139°39'1 1.3
2017-Nov-19 23:00N 35°23' E 139°38'0 0.0
2017-Nov-19 22:30N 35°23' E 139°38'0 0.2
2017-Nov-19 22:00N 35°23' E 139°38'0 0.9
2017-Nov-19 21:30N 35°24' E 139°39'5 9.9
2017-Nov-19 21:00N 35°19' E 139°41'2 4.4
2017-Nov-19 20:30N 35°17' E 139°41'0 0.0
2017-Nov-19 20:00N 35°17' E 139°41'0 0.0
2017-Nov-19 19:30N 35°17' E 139°41'0 0.0
2017-Nov-19 19:00N 35°17' E 139°41'0 0.0
2017-Nov-19 18:30N 35°17' E 139°41'0 0.0
2017-Nov-19 18:00N 35°17' E 139°41'0 0.0
2017-Nov-19 17:30N 35°17' E 139°41'0 0.0
2017-Nov-19 17:00N 35°17' E 139°41'0 0.0
2017-Nov-19 16:30N 35°17' E 139°41'0 0.0
2017-Nov-19 16:00N 35°17' E 139°41'0 0.0
2017-Nov-19 15:30N 35°17' E 139°41'0 0.0
2017-Nov-19 15:00N 35°17' E 139°41'0 0.0
2017-Nov-19 14:30N 35°17' E 139°41'0 0.0
2017-Nov-19 13:59N 35°17' E 139°41'0 0.0
2017-Nov-19 13:30N 35°17' E 139°41'0 0.0
2017-Nov-19 13:00N 35°17' E 139°41'0 0.0
2017-Nov-19 12:30N 35°17' E 139°41'0 0.0
2017-Nov-19 12:00N 35°17' E 139°41'0 0.0
2017-Nov-19 11:30N 35°17' E 139°41'0 0.0
2017-Nov-19 11:00N 35°17' E 139°41'0 0.0
2017-Nov-19 10:30N 35°17' E 139°41'0 0.0
2017-Nov-19 10:00N 35°17' E 139°41'0 0.0
2017-Nov-19 09:30N 35°17' E 139°41'2 3.9
2017-Nov-19 09:00N 35°19' E 139°40'1 2.4
2017-Nov-19 08:30N 35°18' E 139°39'1 2.3
2017-Nov-19 08:00N 35°19' E 139°40'0 0.0
2017-Nov-19 07:30N 35°19' E 139°40'0 0.0
2017-Nov-19 07:00N 35°19' E 139°40'0 0.0
2017-Nov-19 06:30N 35°19' E 139°40'0 0.0
2017-Nov-19 06:00N 35°19' E 139°40'0 0.0
2017-Nov-19 05:30N 35°19' E 139°40'0 0.0
2017-Nov-19 05:00N 35°19' E 139°40'0 0.0
2017-Nov-19 04:30N 35°19' E 139°40'0 0.0
2017-Nov-19 04:00N 35°19' E 139°40'0 0.0
2017-Nov-19 03:30N 35°19' E 139°40'0 0.0
2017-Nov-19 03:00N 35°19' E 139°40'0 0.0
2017-Nov-19 02:30N 35°19' E 139°40'0 0.0
2017-Nov-19 02:00N 35°19' E 139°40'4 8.6
2017-Nov-19 01:30N 35°23' E 139°42'3 6.8
2017-Nov-19 01:00N 35°26' E 139°45'3 6.3
2017-Nov-19 00:30N 35°23' E 139°43'611.1
2017-Nov-19 00:00N 35°18' E 139°45'510.1
2017-Nov-18 23:30N 35°13' E 139°47'3 6.2
2017-Nov-18 23:00N 35°10' E 139°47'4 8.7
2017-Nov-18 22:30N 35°14' E 139°46'5 9.9
2017-Nov-18 22:00N 35°18' E 139°42'1 2.6
2017-Nov-18 21:30N 35°17' E 139°41'0 0.1
2017-Nov-18 21:00N 35°17' E 139°41'0 0.1
2017-Nov-18 20:29N 35°17' E 139°41'0 0.1
2017-Nov-18 20:00N 35°17' E 139°41'0 0.0
2017-Nov-18 19:30N 35°17' E 139°41'0 0.1
2017-Nov-18 19:00N 35°17' E 139°41'0 0.1
2017-Nov-18 18:30N 35°17' E 139°41'0 0.1
2017-Nov-18 18:00N 35°17' E 139°41'0 0.0
2017-Nov-18 17:30N 35°17' E 139°41'0 0.0
2017-Nov-18 17:00N 35°17' E 139°41'0 0.0
2017-Nov-18 16:30N 35°17' E 139°41'0 0.0
2017-Nov-18 16:00N 35°17' E 139°41'0 0.0
2017-Nov-18 15:30N 35°17' E 139°41'0 0.0
2017-Nov-18 15:00N 35°17' E 139°41'0 0.1
2017-Nov-18 14:30N 35°17' E 139°41'0 0.1
2017-Nov-18 14:00N 35°17' E 139°41'0 0.0
2017-Nov-18 13:30N 35°17' E 139°41'0 0.1
2017-Nov-18 13:00N 35°17' E 139°41'0 0.0
2017-Nov-18 12:30N 35°17' E 139°41'0 0.0
2017-Nov-18 07:13N 35°17' E 139°41'0 0.2
2017-Nov-18 07:00N 35°17' E 139°41'0 0.1
2017-Nov-18 06:18N 35°17' E 139°41'0 0.0
2017-Nov-18 05:55N 35°17' E 139°41'0 0.1
2017-Nov-18 05:30N 35°17' E 139°41'3 6.2
2017-Nov-18 05:00N 35°17' E 139°44'4 8.1
2017-Nov-18 04:30N 35°13' E 139°46'611.6
2017-Nov-18 04:00N 35°18' E 139°44'611.7
2017-Nov-18 03:30N 35°24' E 139°43'612.4
2017-Nov-18 03:00N 35°28' E 139°49'6 4.8
2017-Nov-18 01:42N 35°31' E 139°56'3 4.3
2017-Nov-18 00:53N 35°28' E 139°54'611.1
2017-Nov-18 00:23N 35°24' E 139°48'410.9
2017-Nov-18 00:00N 35°21' E 139°45'510.0
2017-Nov-17 23:30N 35°17' E 139°41'0 0.7
2017-Nov-17 23:00N 35°17' E 139°41'0 0.0
2017-Nov-17 22:30N 35°17' E 139°41'0 0.0
2017-Nov-17 22:00N 35°17' E 139°41'0 0.0
2017-Nov-17 21:30N 35°17' E 139°41'0 0.0
2017-Nov-17 21:00N 35°17' E 139°41'0 0.0
2017-Nov-17 20:30N 35°17' E 139°41'0 0.0
2017-Nov-17 19:59N 35°17' E 139°41'0 0.0
2017-Nov-17 19:30N 35°17' E 139°41'0 0.0
2017-Nov-17 18:56N 35°17' E 139°41'0 0.0
2017-Nov-17 18:30N 35°17' E 139°41'0 0.0
2017-Nov-17 18:00N 35°17' E 139°41'0 0.0
2017-Nov-17 17:30N 35°17' E 139°41'0 0.0
2017-Nov-17 17:00N 35°17' E 139°41'0 0.0
2017-Nov-17 16:28N 35°17' E 139°41'0 0.0
2017-Nov-17 16:00N 35°17' E 139°41'0 0.0
2017-Nov-17 15:29N 35°17' E 139°41'0 0.0
2017-Nov-17 14:59N 35°17' E 139°41'0 0.0
2017-Nov-17 11:29N 35°17' E 139°41'0 0.0
2017-Nov-17 10:44N 35°17' E 139°41'0 0.0
2017-Nov-17 10:30N 35°17' E 139°41'0 0.0
2017-Nov-17 09:16N 35°17' E 139°41'0 0.0
2017-Nov-17 08:57N 35°17' E 139°41'0 0.0
2017-Nov-17 08:28N 35°17' E 139°41'0 0.0
2017-Nov-17 08:00N 35°17' E 139°41'0 0.0
2017-Nov-17 07:30N 35°17' E 139°41'0 0.0
2017-Nov-17 06:58N 35°17' E 139°41'0 0.0
2017-Nov-17 06:30N 35°17' E 139°41'0 0.0
2017-Nov-17 05:59N 35°17' E 139°41'0 0.0
2017-Nov-17 05:30N 35°17' E 139°41'0 0.0
2017-Nov-17 05:00N 35°17' E 139°41'0 0.0
2017-Nov-17 04:29N 35°17' E 139°41'0 0.0
2017-Nov-17 04:00N 35°17' E 139°41'0 0.0
2017-Nov-17 03:30N 35°17' E 139°41'0 0.0
2017-Nov-17 02:58N 35°17' E 139°41'0 0.0
2017-Nov-17 02:29N 35°17' E 139°41'0 0.0
2017-Nov-17 01:59N 35°17' E 139°41'0 0.0
2017-Nov-17 01:29N 35°17' E 139°41'0 0.0
2017-Nov-17 01:00N 35°17' E 139°41'0 0.0
2017-Nov-17 00:22N 35°17' E 139°41'0 0.0
2017-Nov-17 00:00N 35°17' E 139°41'0 0.0
2017-Nov-16 23:30N 35°17' E 139°41'0 0.1
2017-Nov-16 23:00N 35°17' E 139°41'0 0.0
2017-Nov-16 22:30N 35°17' E 139°41'0 0.0
2017-Nov-16 22:00N 35°17' E 139°41'2 4.5
2017-Nov-16 21:30N 35°17' E 139°43'4 7.9
2017-Nov-16 21:00N 35°14' E 139°46'2 4.9
2017-Nov-16 20:30N 35°16' E 139°46'611.9
2017-Nov-16 20:00N 35°22' E 139°42'5 9.7
2017-Nov-16 19:31N 35°26' E 139°42'1 1.7
2017-Nov-16 19:00N 35°26' E 139°42'0 0.0
2017-Nov-16 18:30N 35°26' E 139°42'0 0.0
2017-Nov-16 18:00N 35°26' E 139°42'0 0.0
2017-Nov-16 17:30N 35°26' E 139°42'0 0.0
2017-Nov-16 17:00N 35°26' E 139°42'0 0.0
2017-Nov-16 16:30N 35°26' E 139°42'0 0.0
2017-Nov-16 16:00N 35°26' E 139°42'0 0.0
2017-Nov-16 15:30N 35°26' E 139°42'0 0.0
2017-Nov-16 15:00N 35°26' E 139°42'0 0.0
2017-Nov-16 14:30N 35°26' E 139°42'1 1.9
2017-Nov-16 14:00N 35°25' E 139°42'612.1
2017-Nov-16 13:30N 35°19' E 139°43'611.6
2017-Nov-16 13:00N 35°13' E 139°46'3 5.3
2017-Nov-16 12:30N 35°16' E 139°46'611.7
2017-Nov-16 12:00N 35°21' E 139°42'3 6.9
2017-Nov-16 11:30N 35°24' E 139°40'2 3.0
2017-Nov-16 11:01N 35°24' E 139°38'0 0.0
2017-Nov-16 10:30N 35°24' E 139°38'0 0.1
2017-Nov-16 10:00N 35°24' E 139°38'0 0.1
2017-Nov-16 09:30N 35°24' E 139°38'0 0.1
2017-Nov-16 09:00N 35°24' E 139°38'0 0.0
2017-Nov-16 08:31N 35°24' E 139°38'0 0.6
2017-Nov-16 08:00N 35°24' E 139°38'0 0.4
2017-Nov-16 07:30N 35°24' E 139°38'0 0.3
2017-Nov-16 07:00N 35°24' E 139°38'0 0.7
2017-Nov-16 06:30N 35°24' E 139°38'0 0.1
2017-Nov-16 06:00N 35°24' E 139°38'0 0.6
2017-Nov-16 05:30N 35°24' E 139°38'0 0.2
2017-Nov-16 05:00N 35°24' E 139°38'0 0.1
2017-Nov-16 04:30N 35°24' E 139°38'0 0.0
2017-Nov-16 04:01N 35°24' E 139°38'0 0.1
2017-Nov-16 03:30N 35°24' E 139°38'0 0.3
2017-Nov-16 03:00N 35°24' E 139°38'0 0.3
2017-Nov-16 02:30N 35°24' E 139°38'0 0.1
2017-Nov-16 02:01N 35°24' E 139°38'0 0.2
2017-Nov-16 01:30N 35°24' E 139°38'1 2.0
2017-Nov-16 01:00N 35°24' E 139°39'612.6
2017-Nov-16 00:30N 35°18' E 139°41'1 1.9
2017-Nov-16 00:00N 35°17' E 139°41'0 0.0
2017-Nov-15 23:30N 35°17' E 139°41'0 0.0
2017-Nov-15 23:00N 35°17' E 139°41'0 0.0
2017-Nov-15 22:30N 35°17' E 139°41'0 0.0
2017-Nov-15 22:00N 35°17' E 139°41'0 0.0
2017-Nov-15 21:30N 35°17' E 139°41'0 0.0
2017-Nov-15 21:00N 35°17' E 139°41'0 0.0
2017-Nov-15 20:30N 35°17' E 139°41'0 0.0
2017-Nov-15 20:00N 35°17' E 139°41'0 0.0
2017-Nov-15 19:30N 35°17' E 139°41'0 0.0
2017-Nov-15 18:58N 35°17' E 139°41'0 0.0
2017-Nov-15 18:30N 35°17' E 139°41'0 0.0
2017-Nov-15 17:59N 35°17' E 139°41'0 0.0
2017-Nov-15 17:30N 35°17' E 139°41'0 0.0
2017-Nov-15 17:00N 35°17' E 139°41'0 0.0
2017-Nov-15 16:29N 35°17' E 139°41'0 0.0
2017-Nov-15 16:00N 35°17' E 139°41'0 0.0
2017-Nov-15 15:30N 35°17' E 139°41'0 0.0
2017-Nov-15 14:57N 35°17' E 139°41'0 0.0
2017-Nov-15 14:18N 35°17' E 139°41'0 0.0
2017-Nov-15 13:59N 35°17' E 139°41'0 0.0
2017-Nov-15 13:17N 35°17' E 139°41'0 0.0
2017-Nov-15 12:58N 35°17' E 139°41'0 0.0
2017-Nov-15 12:28N 35°17' E 139°41'0 0.0
2017-Nov-15 11:55N 35°17' E 139°41'0 0.0
2017-Nov-15 11:29N 35°17' E 139°41'0 0.0
2017-Nov-15 11:00N 35°17' E 139°41'0 0.0
2017-Nov-15 10:30N 35°17' E 139°41'0 0.0
2017-Nov-15 10:00N 35°17' E 139°41'0 0.0
2017-Nov-15 09:30N 35°17' E 139°41'0 0.0
2017-Nov-15 09:00N 35°17' E 139°41'0 0.0
2017-Nov-15 08:29N 35°17' E 139°41'0 0.0
2017-Nov-15 07:58N 35°17' E 139°41'0 0.0
2017-Nov-15 07:30N 35°17' E 139°41'0 0.0
2017-Nov-15 07:00N 35°17' E 139°41'0 0.0
2017-Nov-15 06:30N 35°17' E 139°41'0 0.0
2017-Nov-15 06:00N 35°17' E 139°41'0 0.0
2017-Nov-15 05:30N 35°17' E 139°41'0 0.0
2017-Nov-15 05:00N 35°17' E 139°41'0 0.0
2017-Nov-15 04:30N 35°17' E 139°41'0 0.0
2017-Nov-15 04:00N 35°17' E 139°41'0 0.0
2017-Nov-15 03:30N 35°17' E 139°41'0 0.0
2017-Nov-15 03:00N 35°17' E 139°41'0 0.0
2017-Nov-15 02:29N 35°17' E 139°41'0 0.0
2017-Nov-15 02:00N 35°17' E 139°41'0 0.0
2017-Nov-15 01:30N 35°17' E 139°41'0 0.0
2017-Nov-15 01:00N 35°17' E 139°41'2 3.9
2017-Nov-15 00:30N 35°19' E 139°42'510.6
2017-Nov-15 00:01N 35°23' E 139°45'3 6.9
2017-Nov-14 23:31N 35°20' E 139°44'611.7
2017-Nov-14 23:00N 35°14' E 139°47'4 9.0
2017-Nov-14 22:30N 35°10' E 139°47'4 7.3
2017-Nov-14 22:00N 35°13' E 139°44'1 2.4
2017-Nov-14 21:30N 35°13' E 139°43'0 0.0
2017-Nov-14 21:00N 35°13' E 139°43'1 1.9
2017-Nov-14 20:30N 35°13' E 139°44'2 4.3
2017-Nov-14 20:00N 35°14' E 139°46'612.3
2017-Nov-14 19:30N 35°20' E 139°43'4 7.7
2017-Nov-14 19:00N 35°23' E 139°41'0 0.5
2017-Nov-14 18:30N 35°23' E 139°41'2 3.4
2017-Nov-14 18:00N 35°21' E 139°41'4 8.8
2017-Nov-14 17:30N 35°17' E 139°41'0 0.0
2017-Nov-14 17:00N 35°17' E 139°41'0 0.0
2017-Nov-14 16:30N 35°17' E 139°41'0 0.0
2017-Nov-14 16:00N 35°17' E 139°41'0 0.0
2017-Nov-14 15:30N 35°17' E 139°41'0 0.0
2017-Nov-14 15:00N 35°17' E 139°41'0 0.0
2017-Nov-14 14:30N 35°17' E 139°41'0 0.0
2017-Nov-14 14:00N 35°17' E 139°41'0 0.0
2017-Nov-14 13:30N 35°17' E 139°41'0 0.0
2017-Nov-14 13:00N 35°17' E 139°41'0 0.0
2017-Nov-14 12:30N 35°17' E 139°41'1 1.1
2017-Nov-14 12:00N 35°17' E 139°41'5 9.8
2017-Nov-14 11:29N 35°14' E 139°46'3 5.6
2017-Nov-14 11:00N 35°16' E 139°46'612.9
2017-Nov-14 10:30N 35°22' E 139°42'4 7.6
2017-Nov-14 10:01N 35°26' E 139°42'0 0.6
2017-Nov-14 09:30N 35°26' E 139°42'2 3.1
2017-Nov-14 09:00N 35°24' E 139°42'4 7.4
2017-Nov-14 08:31N 35°20' E 139°43'712.7
2017-Nov-14 07:59N 35°15' E 139°47'510.0
2017-Nov-14 07:30N 35°10' E 139°47'1 1.4
2017-Nov-14 07:00N 35°10' E 139°47'1 2.0
2017-Nov-14 06:31N 35°11' E 139°46'510.3
2017-Nov-14 05:59N 35°16' E 139°46'613.2
2017-Nov-14 05:31N 35°22' E 139°42'  
Track history (hours):
 
Tides and Currents Weather Stations Pressure Air Temp Water Temp Dewpoint Dewpoint Depression Visibility Wind Speed Wind Dir Waves Ship Positions

Nagatomaru

Last reported at 2017-Nov-24 05:30 UTC. Time now 2017-Nov-24 05:46 UTC.
Position N 35°17' E 139°41'.

Length 38 m; draft 3 m.

Type: Tug. MMSI: 431005054.

Date/timePositionNaut miles runAvg speedWind from/ knotsBaromVisibWave heightAir tempDewpointWater temp
2017-Nov-24 05:30N 35°17' E 139°41'0 0.0
2017-Nov-24 05:00N 35°17' E 139°41'0 0.0
2017-Nov-24 04:29N 35°17' E 139°41'0 0.0
2017-Nov-24 04:00N 35°17' E 139°41'0 0.0
2017-Nov-24 03:30N 35°17' E 139°41'0 0.0
2017-Nov-24 03:00N 35°17' E 139°41'0 0.0
2017-Nov-24 02:27N 35°17' E 139°41'0 0.0
2017-Nov-24 02:00N 35°17' E 139°41'3 5.6
2017-Nov-24 01:31N 35°17' E 139°44'5 9.6
2017-Nov-24 01:00N 35°12' E 139°46'4 8.2
2017-Nov-24 00:30N 35°16' E 139°45'612.9
2017-Nov-24 00:00N 35°22' E 139°42'611.8
2017-Nov-23 23:30N 35°27' E 139°47'612.9
2017-Nov-23 23:00N 35°30' E 139°53'6 8.5
2017-Nov-23 22:18N 35°31' E 140°01'0 0.8
2017-Nov-23 21:57N 35°32' E 140°01'7 6.1
2017-Nov-23 20:44N 35°27' E 139°53'311.0
2017-Nov-23 20:27N 35°25' E 139°51'510.8
2017-Nov-23 20:00N 35°22' E 139°47'611.1
2017-Nov-23 19:30N 35°18' E 139°42'1 0.4
2017-Nov-23 16:35N 35°17' E 139°41'0 0.0
2017-Nov-23 16:18N 35°17' E 139°41'0 0.0
2017-Nov-23 15:02N 35°17' E 139°41'0 0.0
2017-Nov-23 14:57N 35°17' E 139°41'0 0.0
2017-Nov-23 14:30N 35°17' E 139°41'0 0.0
2017-Nov-23 14:00N 35°17' E 139°41'0 0.0
2017-Nov-23 13:30N 35°17' E 139°41'0 0.0
2017-Nov-23 13:00N 35°17' E 139°41'0 0.0
2017-Nov-23 12:16N 35°17' E 139°41'0 0.0
2017-Nov-23 11:47N 35°17' E 139°41'0 0.0
2017-Nov-23 11:29N 35°17' E 139°41'0 0.0
2017-Nov-23 10:54N 35°17' E 139°41'0 0.0
2017-Nov-23 10:29N 35°17' E 139°41'0 0.0
2017-Nov-23 09:55N 35°17' E 139°41'2 3.8
2017-Nov-23 09:30N 35°18' E 139°42'5 9.7
2017-Nov-23 09:01N 35°13' E 139°45'3 5.9
2017-Nov-23 08:30N 35°16' E 139°45'713.9
2017-Nov-23 08:01N 35°23' E 139°42'4 7.5
2017-Nov-23 07:30N 35°27' E 139°42'0 1.0
2017-Nov-23 07:01N 35°27' E 139°42'0 0.0
2017-Nov-23 06:30N 35°27' E 139°42'0 0.0
2017-Nov-23 06:00N 35°27' E 139°42'3 6.4
2017-Nov-23 05:30N 35°27' E 139°46'0 0.9
2017-Nov-23 05:00N 35°27' E 139°46'2 3.4
2017-Nov-23 04:30N 35°25' E 139°46'5 9.4
2017-Nov-23 04:00N 35°21' E 139°45'510.7
2017-Nov-23 03:30N 35°16' E 139°47'510.2
2017-Nov-23 03:00N 35°10' E 139°47'1 1.2
2017-Nov-23 02:30N 35°10' E 139°48'4 7.9
2017-Nov-23 02:00N 35°14' E 139°46'2 3.8
2017-Nov-23 01:30N 35°16' E 139°45'2 4.0
2017-Nov-23 01:00N 35°18' E 139°43'4 8.1
2017-Nov-23 00:30N 35°22' E 139°44'2 4.2
2017-Nov-23 00:00N 35°23' E 139°46'4 7.1
2017-Nov-22 23:31N 35°19' E 139°44'510.0
2017-Nov-22 22:59N 35°15' E 139°47'5 9.6
2017-Nov-22 22:30N 35°10' E 139°47'4 8.7
2017-Nov-22 22:01N 35°14' E 139°45'5 9.2
2017-Nov-22 21:30N 35°17' E 139°41'1 1.5
2017-Nov-22 21:00N 35°17' E 139°41'0 0.0
2017-Nov-22 20:30N 35°17' E 139°41'0 0.0
2017-Nov-22 20:00N 35°17' E 139°41'0 0.0
2017-Nov-22 19:30N 35°17' E 139°41'  
2017-Nov-20 00:30N 35°18' E 139°42'3 5.8
2017-Nov-20 00:00N 35°21' E 139°41'3 6.8
2017-Nov-19 23:30N 35°24' E 139°39'1 1.3
2017-Nov-19 23:00N 35°23' E 139°38'0 0.0
2017-Nov-19 22:30N 35°23' E 139°38'0 0.2
2017-Nov-19 22:00N 35°23' E 139°38'0 0.9
2017-Nov-19 21:30N 35°24' E 139°39'5 9.9
2017-Nov-19 21:00N 35°19' E 139°41'2 4.4
2017-Nov-19 20:30N 35°17' E 139°41'0 0.0
2017-Nov-19 20:00N 35°17' E 139°41'0 0.0
2017-Nov-19 19:30N 35°17' E 139°41'0 0.0
2017-Nov-19 19:00N 35°17' E 139°41'0 0.0
2017-Nov-19 18:30N 35°17' E 139°41'0 0.0
2017-Nov-19 18:00N 35°17' E 139°41'0 0.0
2017-Nov-19 17:30N 35°17' E 139°41'0 0.0
2017-Nov-19 17:00N 35°17' E 139°41'0 0.0
2017-Nov-19 16:30N 35°17' E 139°41'0 0.0
2017-Nov-19 16:00N 35°17' E 139°41'0 0.0
2017-Nov-19 15:30N 35°17' E 139°41'0 0.0
2017-Nov-19 15:00N 35°17' E 139°41'0 0.0
2017-Nov-19 14:30N 35°17' E 139°41'0 0.0
2017-Nov-19 13:59N 35°17' E 139°41'0 0.0
2017-Nov-19 13:30N 35°17' E 139°41'0 0.0
2017-Nov-19 13:00N 35°17' E 139°41'0 0.0
2017-Nov-19 12:30N 35°17' E 139°41'0 0.0
2017-Nov-19 12:00N 35°17' E 139°41'0 0.0
2017-Nov-19 11:30N 35°17' E 139°41'0 0.0
2017-Nov-19 11:00N 35°17' E 139°41'0 0.0
2017-Nov-19 10:30N 35°17' E 139°41'0 0.0
2017-Nov-19 10:00N 35°17' E 139°41'0 0.0
2017-Nov-19 09:30N 35°17' E 139°41'2 3.9
2017-Nov-19 09:00N 35°19' E 139°40'1 2.4
2017-Nov-19 08:30N 35°18' E 139°39'1 2.3
2017-Nov-19 08:00N 35°19' E 139°40'0 0.0
2017-Nov-19 07:30N 35°19' E 139°40'0 0.0
2017-Nov-19 07:00N 35°19' E 139°40'0 0.0
2017-Nov-19 06:30N 35°19' E 139°40'0 0.0
2017-Nov-19 06:00N 35°19' E 139°40'0 0.0
2017-Nov-19 05:30N 35°19' E 139°40'0 0.0
2017-Nov-19 05:00N 35°19' E 139°40'0 0.0
2017-Nov-19 04:30N 35°19' E 139°40'0 0.0
2017-Nov-19 04:00N 35°19' E 139°40'0 0.0
2017-Nov-19 03:30N 35°19' E 139°40'0 0.0
2017-Nov-19 03:00N 35°19' E 139°40'0 0.0
2017-Nov-19 02:30N 35°19' E 139°40'0 0.0
2017-Nov-19 02:00N 35°19' E 139°40'4 8.6
2017-Nov-19 01:30N 35°23' E 139°42'3 6.8
2017-Nov-19 01:00N 35°26' E 139°45'3 6.3
2017-Nov-19 00:30N 35°23' E 139°43'611.1
2017-Nov-19 00:00N 35°18' E 139°45'510.1
2017-Nov-18 23:30N 35°13' E 139°47'3 6.2
2017-Nov-18 23:00N 35°10' E 139°47'4 8.7
2017-Nov-18 22:30N 35°14' E 139°46'5 9.9
2017-Nov-18 22:00N 35°18' E 139°42'1 2.6
2017-Nov-18 21:30N 35°17' E 139°41'0 0.1
2017-Nov-18 21:00N 35°17' E 139°41'0 0.1
2017-Nov-18 20:29N 35°17' E 139°41'0 0.1
2017-Nov-18 20:00N 35°17' E 139°41'0 0.0
2017-Nov-18 19:30N 35°17' E 139°41'0 0.1
2017-Nov-18 19:00N 35°17' E 139°41'0 0.1
2017-Nov-18 18:30N 35°17' E 139°41'0 0.1
2017-Nov-18 18:00N 35°17' E 139°41'0 0.0
2017-Nov-18 17:30N 35°17' E 139°41'0 0.0
2017-Nov-18 17:00N 35°17' E 139°41'0 0.0
2017-Nov-18 16:30N 35°17' E 139°41'0 0.0
2017-Nov-18 16:00N 35°17' E 139°41'0 0.0
2017-Nov-18 15:30N 35°17' E 139°41'0 0.0
2017-Nov-18 15:00N 35°17' E 139°41'0 0.1
2017-Nov-18 14:30N 35°17' E 139°41'0 0.1
2017-Nov-18 14:00N 35°17' E 139°41'0 0.0
2017-Nov-18 13:30N 35°17' E 139°41'0 0.1
2017-Nov-18 13:00N 35°17' E 139°41'0 0.0
2017-Nov-18 12:30N 35°17' E 139°41'0 0.0
2017-Nov-18 07:13N 35°17' E 139°41'0 0.2
2017-Nov-18 07:00N 35°17' E 139°41'0 0.1
2017-Nov-18 06:18N 35°17' E 139°41'0 0.0
2017-Nov-18 05:55N 35°17' E 139°41'0 0.1
2017-Nov-18 05:30N 35°17' E 139°41'3 6.2
2017-Nov-18 05:00N 35°17' E 139°44'4 8.1
2017-Nov-18 04:30N 35°13' E 139°46'611.6
2017-Nov-18 04:00N 35°18' E 139°44'611.7
2017-Nov-18 03:30N 35°24' E 139°43'612.4
2017-Nov-18 03:00N 35°28' E 139°49'6 4.8
2017-Nov-18 01:42N 35°31' E 139°56'3 4.3
2017-Nov-18 00:53N 35°28' E 139°54'611.1
2017-Nov-18 00:23N 35°24' E 139°48'410.9
2017-Nov-18 00:00N 35°21' E 139°45'510.0
2017-Nov-17 23:30N 35°17' E 139°41'0 0.7
2017-Nov-17 23:00N 35°17' E 139°41'0 0.0
2017-Nov-17 22:30N 35°17' E 139°41'0 0.0
2017-Nov-17 22:00N 35°17' E 139°41'0 0.0
2017-Nov-17 21:30N 35°17' E 139°41'0 0.0
2017-Nov-17 21:00N 35°17' E 139°41'0 0.0
2017-Nov-17 20:30N 35°17' E 139°41'0 0.0
2017-Nov-17 19:59N 35°17' E 139°41'0 0.0
2017-Nov-17 19:30N 35°17' E 139°41'0 0.0
2017-Nov-17 18:56N 35°17' E 139°41'0 0.0
2017-Nov-17 18:30N 35°17' E 139°41'0 0.0
2017-Nov-17 18:00N 35°17' E 139°41'0 0.0
2017-Nov-17 17:30N 35°17' E 139°41'0 0.0
2017-Nov-17 17:00N 35°17' E 139°41'0 0.0
2017-Nov-17 16:28N 35°17' E 139°41'0 0.0
2017-Nov-17 16:00N 35°17' E 139°41'0 0.0
2017-Nov-17 15:29N 35°17' E 139°41'0 0.0
2017-Nov-17 14:59N 35°17' E 139°41'0 0.0
2017-Nov-17 11:29N 35°17' E 139°41'0 0.0
2017-Nov-17 10:44N 35°17' E 139°41'0 0.0
2017-Nov-17 10:30N 35°17' E 139°41'0 0.0
2017-Nov-17 09:16N 35°17' E 139°41'0 0.0
2017-Nov-17 08:57N 35°17' E 139°41'0 0.0
2017-Nov-17 08:28N 35°17' E 139°41'0 0.0
2017-Nov-17 08:00N 35°17' E 139°41'0 0.0
2017-Nov-17 07:30N 35°17' E 139°41'0 0.0
2017-Nov-17 06:58N 35°17' E 139°41'0 0.0
2017-Nov-17 06:30N 35°17' E 139°41'0 0.0
2017-Nov-17 05:59N 35°17' E 139°41'0 0.0
2017-Nov-17 05:30N 35°17' E 139°41'0 0.0
2017-Nov-17 05:00N 35°17' E 139°41'0 0.0
2017-Nov-17 04:29N 35°17' E 139°41'0 0.0
2017-Nov-17 04:00N 35°17' E 139°41'0 0.0
2017-Nov-17 03:30N 35°17' E 139°41'0 0.0
2017-Nov-17 02:58N 35°17' E 139°41'0 0.0
2017-Nov-17 02:29N 35°17' E 139°41'0 0.0
2017-Nov-17 01:59N 35°17' E 139°41'0 0.0
2017-Nov-17 01:29N 35°17' E 139°41'0 0.0
2017-Nov-17 01:00N 35°17' E 139°41'0 0.0
2017-Nov-17 00:22N 35°17' E 139°41'0 0.0
2017-Nov-17 00:00N 35°17' E 139°41'0 0.0
2017-Nov-16 23:30N 35°17' E 139°41'0 0.1
2017-Nov-16 23:00N 35°17' E 139°41'0 0.0
2017-Nov-16 22:30N 35°17' E 139°41'0 0.0
2017-Nov-16 22:00N 35°17' E 139°41'2 4.5
2017-Nov-16 21:30N 35°17' E 139°43'4 7.9
2017-Nov-16 21:00N 35°14' E 139°46'2 4.9
2017-Nov-16 20:30N 35°16' E 139°46'611.9
2017-Nov-16 20:00N 35°22' E 139°42'5 9.7
2017-Nov-16 19:31N 35°26' E 139°42'1 1.7
2017-Nov-16 19:00N 35°26' E 139°42'0 0.0
2017-Nov-16 18:30N 35°26' E 139°42'0 0.0
2017-Nov-16 18:00N 35°26' E 139°42'0 0.0
2017-Nov-16 17:30N 35°26' E 139°42'0 0.0
2017-Nov-16 17:00N 35°26' E 139°42'0 0.0
2017-Nov-16 16:30N 35°26' E 139°42'0 0.0
2017-Nov-16 16:00N 35°26' E 139°42'0 0.0
2017-Nov-16 15:30N 35°26' E 139°42'0 0.0
2017-Nov-16 15:00N 35°26' E 139°42'0 0.0
2017-Nov-16 14:30N 35°26' E 139°42'1 1.9
2017-Nov-16 14:00N 35°25' E 139°42'612.1
2017-Nov-16 13:30N 35°19' E 139°43'611.6
2017-Nov-16 13:00N 35°13' E 139°46'3 5.3
2017-Nov-16 12:30N 35°16' E 139°46'611.7
2017-Nov-16 12:00N 35°21' E 139°42'3 6.9
2017-Nov-16 11:30N 35°24' E 139°40'2 3.0
2017-Nov-16 11:01N 35°24' E 139°38'0 0.0
2017-Nov-16 10:30N 35°24' E 139°38'0 0.1
2017-Nov-16 10:00N 35°24' E 139°38'0 0.1
2017-Nov-16 09:30N 35°24' E 139°38'0 0.1
2017-Nov-16 09:00N 35°24' E 139°38'0 0.0
2017-Nov-16 08:31N 35°24' E 139°38'0 0.6
2017-Nov-16 08:00N 35°24' E 139°38'0 0.4
2017-Nov-16 07:30N 35°24' E 139°38'0 0.3
2017-Nov-16 07:00N 35°24' E 139°38'0 0.7
2017-Nov-16 06:30N 35°24' E 139°38'0 0.1
2017-Nov-16 06:00N 35°24' E 139°38'0 0.6
2017-Nov-16 05:30N 35°24' E 139°38'0 0.2
2017-Nov-16 05:00N 35°24' E 139°38'0 0.1
2017-Nov-16 04:30N 35°24' E 139°38'0 0.0
2017-Nov-16 04:01N 35°24' E 139°38'0 0.1
2017-Nov-16 03:30N 35°24' E 139°38'0 0.3
2017-Nov-16 03:00N 35°24' E 139°38'0 0.3
2017-Nov-16 02:30N 35°24' E 139°38'0 0.1
2017-Nov-16 02:01N 35°24' E 139°38'0 0.2
2017-Nov-16 01:30N 35°24' E 139°38'1 2.0
2017-Nov-16 01:00N 35°24' E 139°39'612.6
2017-Nov-16 00:30N 35°18' E 139°41'1 1.9
2017-Nov-16 00:00N 35°17' E 139°41'0 0.0
2017-Nov-15 23:30N 35°17' E 139°41'0 0.0
2017-Nov-15 23:00N 35°17' E 139°41'0 0.0
2017-Nov-15 22:30N 35°17' E 139°41'0 0.0
2017-Nov-15 22:00N 35°17' E 139°41'0 0.0
2017-Nov-15 21:30N 35°17' E 139°41'0 0.0
2017-Nov-15 21:00N 35°17' E 139°41'0 0.0
2017-Nov-15 20:30N 35°17' E 139°41'0 0.0
2017-Nov-15 20:00N 35°17' E 139°41'0 0.0
2017-Nov-15 19:30N 35°17' E 139°41'0 0.0
2017-Nov-15 18:58N 35°17' E 139°41'0 0.0
2017-Nov-15 18:30N 35°17' E 139°41'0 0.0
2017-Nov-15 17:59N 35°17' E 139°41'0 0.0
2017-Nov-15 17:30N 35°17' E 139°41'0 0.0
2017-Nov-15 17:00N 35°17' E 139°41'0 0.0
2017-Nov-15 16:29N 35°17' E 139°41'0 0.0
2017-Nov-15 16:00N 35°17' E 139°41'0 0.0
2017-Nov-15 15:30N 35°17' E 139°41'0 0.0
2017-Nov-15 14:57N 35°17' E 139°41'0 0.0
2017-Nov-15 14:18N 35°17' E 139°41'0 0.0
2017-Nov-15 13:59N 35°17' E 139°41'0 0.0
2017-Nov-15 13:17N 35°17' E 139°41'0 0.0
2017-Nov-15 12:58N 35°17' E 139°41'0 0.0
2017-Nov-15 12:28N 35°17' E 139°41'0 0.0
2017-Nov-15 11:55N 35°17' E 139°41'0 0.0
2017-Nov-15 11:29N 35°17' E 139°41'0 0.0
2017-Nov-15 11:00N 35°17' E 139°41'0 0.0
2017-Nov-15 10:30N 35°17' E 139°41'0 0.0
2017-Nov-15 10:00N 35°17' E 139°41'0 0.0
2017-Nov-15 09:30N 35°17' E 139°41'0 0.0
2017-Nov-15 09:00N 35°17' E 139°41'0 0.0
2017-Nov-15 08:29N 35°17' E 139°41'0 0.0
2017-Nov-15 07:58N 35°17' E 139°41'0 0.0
2017-Nov-15 07:30N 35°17' E 139°41'0 0.0
2017-Nov-15 07:00N 35°17' E 139°41'0 0.0
2017-Nov-15 06:30N 35°17' E 139°41'0 0.0
2017-Nov-15 06:00N 35°17' E 139°41'0 0.0
2017-Nov-15 05:30N 35°17' E 139°41'0 0.0
2017-Nov-15 05:00N 35°17' E 139°41'0 0.0
2017-Nov-15 04:30N 35°17' E 139°41'0 0.0
2017-Nov-15 04:00N 35°17' E 139°41'0 0.0
2017-Nov-15 03:30N 35°17' E 139°41'0 0.0
2017-Nov-15 03:00N 35°17' E 139°41'0 0.0
2017-Nov-15 02:29N 35°17' E 139°41'0 0.0
2017-Nov-15 02:00N 35°17' E 139°41'0 0.0
2017-Nov-15 01:30N 35°17' E 139°41'0 0.0
2017-Nov-15 01:00N 35°17' E 139°41'2 3.9
2017-Nov-15 00:30N 35°19' E 139°42'510.6
2017-Nov-15 00:01N 35°23' E 139°45'3 6.9
2017-Nov-14 23:31N 35°20' E 139°44'611.7
2017-Nov-14 23:00N 35°14' E 139°47'4 9.0
2017-Nov-14 22:30N 35°10' E 139°47'4 7.3
2017-Nov-14 22:00N 35°13' E 139°44'1 2.4
2017-Nov-14 21:30N 35°13' E 139°43'0 0.0
2017-Nov-14 21:00N 35°13' E 139°43'1 1.9
2017-Nov-14 20:30N 35°13' E 139°44'2 4.3
2017-Nov-14 20:00N 35°14' E 139°46'612.3
2017-Nov-14 19:30N 35°20' E 139°43'4 7.7
2017-Nov-14 19:00N 35°23' E 139°41'0 0.5
2017-Nov-14 18:30N 35°23' E 139°41'2 3.4
2017-Nov-14 18:00N 35°21' E 139°41'4 8.8
2017-Nov-14 17:30N 35°17' E 139°41'0 0.0
2017-Nov-14 17:00N 35°17' E 139°41'0 0.0
2017-Nov-14 16:30N 35°17' E 139°41'0 0.0
2017-Nov-14 16:00N 35°17' E 139°41'0 0.0
2017-Nov-14 15:30N 35°17' E 139°41'0 0.0
2017-Nov-14 15:00N 35°17' E 139°41'0 0.0
2017-Nov-14 14:30N 35°17' E 139°41'0 0.0
2017-Nov-14 14:00N 35°17' E 139°41'0 0.0
2017-Nov-14 13:30N 35°17' E 139°41'0 0.0
2017-Nov-14 13:00N 35°17' E 139°41'0 0.0
2017-Nov-14 12:30N 35°17' E 139°41'1 1.1
2017-Nov-14 12:00N 35°17' E 139°41'5 9.8
2017-Nov-14 11:29N 35°14' E 139°46'3 5.6
2017-Nov-14 11:00N 35°16' E 139°46'612.9
2017-Nov-14 10:30N 35°22' E 139°42'4 7.6
2017-Nov-14 10:01N 35°26' E 139°42'0 0.6
2017-Nov-14 09:30N 35°26' E 139°42'2 3.1
2017-Nov-14 09:00N 35°24' E 139°42'4 7.4
2017-Nov-14 08:31N 35°20' E 139°43'712.7
2017-Nov-14 07:59N 35°15' E 139°47'510.0
2017-Nov-14 07:30N 35°10' E 139°47'1 1.4
2017-Nov-14 07:00N 35°10' E 139°47'1 2.0
2017-Nov-14 06:31N 35°11' E 139°46'510.3
2017-Nov-14 05:59N 35°16' E 139°46'613.2
2017-Nov-14 05:31N 35°22' E 139°42'  

Dump ship's entire track history